Share

Renfro Valley, KY (40473)

K. Bracketts Weather Station 39 N (KKYCRABO2) Elev 952 ft | 37.47 °N, 84.51 °W | Change Station
Active Advisory: Special Statement

Current weather conditions updated 1 second ago

Clear
Clear
72.9 °F
Feels Like 77 °F
N
1.6
Wind Variable Wind from ENE
Gusts 15.2 mph
Sunrise 6:57 AM
Sunset 8:16 PM
Moon Waning Gibbous

Today is forecast to be Cooler than yesterday.

Pressure 30.18 in
Visibility 10.0 miles
Clouds Clear
Heat Index 77 °F
Dew Point 53 °F
Humidity 49%
Rainfall 0.00 in
Snow Depth Not available.
UV 10 out of 16
Pollen 11.00 out of 12
Air Quality Not available.
Flu Activity Sporadic
METAR KLOZ 191653Z AUTO 05011KT 10SM CLR 22/02 A3020 RMK AO2 SLP218 T02170017

More Conditions Fewer Conditions

Pressure 30.18 in
Visibility 10.0 miles
Clouds Clear
Heat Index 77 °F
Dew Point 53 °F
Humidity 49%
Rainfall 0.00 in
Snow Depth Not available.
UV 10 out of 16
Pollen 11.00 out of 12
Air Quality Not available.
Flu Activity Sporadic
METAR KLOZ 191653Z AUTO 05011KT 10SM CLR 22/02 A3020 RMK AO2 SLP218 T02170017

More Conditions Fewer Conditions

10-Day Weather Forecast

Almanac

Astronomy

Apr. 19, 2014 Rise Set
Actual Time 6:57 AM EDT 8:16 PM EDT
Civil Twilight 6:30 AM EDT 8:43 PM EDT
Nautical Twilight 5:57 AM EDT 9:16 PM EDT
Astronomical Twilight 5:23 AM EDT 9:50 PM EDT
Moon No Moon Rise 10:17 AM EDT
Length of Visible Light 14h 13m
Length of Day
13h 18m
Tomorrow will be 2m 13s longer.
Waning Gibbous, 78% of the Moon is Illuminated
Today
Waning Gibbous
Apr 22
Last Quarter
Apr 29
New
May 6
First Quarter
May 14
Full

Today's Extremes

State Highs State Lows

Community

  • A Glorious Morning
    A Glorious Morning
  • Tender Rays Of Hope
    Tender Rays Of Hope
  • Bleeding Hearts
    Bleeding Hearts
  • Sunset Silhouettes
    Sunset Silhouettes
  • FL sunset Perico Isle
    FL sunset Perico Isle

WunderPhotos

Upload Photos

1,702,804 photos uploaded!

WunderBlogs® & News

Nearby

Snow Depth

Station Depth Elevation
No new snow has been reported.

Coastal Water Temperatures

Place Temperature
No Stations Reporting

Earthquake Activity

City Distance Mag. Time & Date
Englewood, Tennessee 134 miles 2.8 10:34 PM EDT
2014-04-12
Minimum magnitude displayed is 2.5.

Nearby Weather Stations

Station Location Temp. Heat Index Dew Point Humidity Wind Precip. Elev Updated Type
K. Bracketts Weather Station 39 N, Crab Orchard, KY 72.9 °F 77 °F 53 °F 49% ENE  at  1.6 mph 0.00 in / hr 952 ft 1:14 PM EDT Rapid Fire
Napier Mountain, London, KY 72.0 °F 77 °F 44 °F 37% ENE  at  5.4 mph 0.00 in / hr 1312 ft 1:14 PM EDT Rapid Fire
HALLS BACKYARD WEATHER, SCIENCE HILL, KY 71.3 °F 76 °F 41 °F 33% North  at  8.0 mph 0.00 in / hr 1076 ft 1:14 PM EDT Normal

Show More Stations Show Fewer Stations

What do you think?

We're not finished. Please let us know what you like, what you don't like, and what you are still missing.